Aérodrome :
LOGIN :

S'inscrire | Disclaimer

   EN    FR    IT 

 










Légende :    VFR   VFR Marginal   IFR   IFR Intensif   IFR Très Intensif
Visi : 
Plafond : 
>= 8 km
>= 3000ft
5 à 8 km
1000 à 3000 ft
1500m à 5 km
500 à 1000 ft
800 à 1500m
200 à 500 ft
< 800m
< 200 ft
Symboles :   Orages  Brouillard  Fortes neiges  Fortes précipitations  Vent > 20 kt
SIGMETs :   Divers  Orages  Givrage  Turbulence  Onde Orograph.  Cendres Volcan.







- Altitude de l'aérodrome : 233 ft
- Code IATA : REU


LERS - Reus Tarragona

DERNIER METAR :
  • 201530Z 13007KT 070V180 9999 FEW040 FEW050CB 23/14 Q1013

METARs EXPIRÉS :
  • 201500Z VRB06KT 9999 FEW040 FEW050TCU 24/14 Q1013
  • 201430Z 16006KT 100V230 9999 FEW040 FEW050CB 24/13 Q1013
  • 201400Z 16007KT 110V210 9999 FEW040 FEW050CB 24/13 Q1014
  • 201330Z VRB05G15KT 9999 FEW040 FEW050CB 24/14 Q1014
  • 201300Z 33004KT 240V020 9999 FEW040 FEW050CB 24/12 Q1014

TAF TAF LERS
Valide du 20 à 15h jusqu'au 21 à 15h UTC


201400Z 2015/2115 16009KT 9999 SCT040 TX23/2113Z TN14/2106Z
PROB40
TEMPO 2015/2018 4000 TSRA FEW025CB SCT030
BECMG 2018/2020 VRB03KT
BECMG 2110/2112 16010KT
Pas de NOTAMs connus pour ce terrain.
1 SIGMET publié pour la FIR Barcelona (LECB) :
 
Orages noyés dans la masse
LECB SIGMET 2 VALID 201300/201600 LEVA
LECB BARCELONA FIR/UIR EMBD TS OBS AT 1250Z WI N3927 W00109 - N4242 E00003 - N4219 E00315 - N4126 E00212 - N4042 E00032 - N3913 W00021 - N3927 W00109 TOP FL390 MOV SSW NC=



MET'MAP, la Météo Aéronautique d'un coup d'oeil ! - Copyright ORBIFLY Décembre 2007 - Disclaimer

ORBIFLY MET'MAP TEAM :

Programmation & Développement : Alexandra Zaïnal
Conception & Développement : Baudouin d'Aumeries
Co-Programmation & Développement : Marc-Olivier Méhu
Soutien technique & logistique : Manuel Goepfert

Contact : metmap@orbifly.com




SOURCES & CREDITS :

   NOAA